クアラルンプール の空港の天気 - METARとTAF

クアラルンプール国際空港 ( WMKK / KUL ) - マレーシア スランゴール州セパン
飛行場実況気象(Metar)
観測時間06/26 19:30 MYT (06/26 11:30 UTC)
風向・風速不定 1m/s
視程10km以上
天気現象
少しの雲 雲底高度 520m
全天の8割程度の雲 雲底高度 8530m
気温28℃
湿度84%
気圧1008hPa
METARWMKK 261130Z VRB01KT 9999 TS FEW017CB BKN280 28/25 Q1008 TEMPO 4000 TSRA
過去の天気等 Google飛行場航空写真 Wunderground天気予報

過去48時間のMETAR

飛行場予報(TAF)
データがありません